Time;durP1;ratioP1;P1;durP2;ratioP2;P2;SDS_P1;SDS_P2;PMS_P1;PMS_P2;Temp;Humidity;BMP_temperature;BMP_pressure;BME280_temperature;BME280_humidity;BME280_pressure;Samples;Min_cycle;Max_cycle;Signal;HPM_P1;HPM_P2
2022/08/30 00:03:13;;;;;;;1.43;1.23;;;;;;;;;;5095483;28;20730;-50
2022/08/30 00:05:40;;;;;;;2.10;1.30;;;;;;;;;;5095146;28;20195;-49
2022/08/30 00:08:07;;;;;;;1.70;1.33;;;;;;;;;;5095044;28;20291;-50
2022/08/30 00:10:33;;;;;;;3.23;1.40;;;;;;;;;;5095380;28;20599;-49
2022/08/30 00:12:59;;;;;;;1.23;1.13;;;;;;;;;;5095157;28;20418;-48
2022/08/30 00:15:25;;;;;;;1.53;1.40;;;;;;;;;;5095328;28;20264;-50
2022/08/30 00:17:51;;;;;;;1.47;1.37;;;;;;;;;;5095322;28;20191;-49
2022/08/30 00:20:18;;;;;;;2.13;1.37;;;;;;;;;;5095208;28;20252;-49
2022/08/30 00:22:46;;;;;;;1.90;1.30;;;;;;;;;;5095207;28;20199;-50
2022/08/30 00:25:13;;;;;;;1.40;1.30;;;;;;;;;;5095076;28;20216;-48
2022/08/30 00:27:39;;;;;;;1.63;1.50;;;;;;;;;;5095064;28;20187;-51
2022/08/30 00:30:06;;;;;;;3.47;1.50;;;;;;;;;;5094874;28;20587;-50
2022/08/30 00:32:32;;;;;;;2.27;1.40;;;;;;;;;;5095053;28;20206;-50
2022/08/30 00:34:58;;;;;;;1.97;1.40;;;;;;;;;;5094739;28;20226;-49
2022/08/30 00:37:24;;;;;;;1.50;1.20;;;;;;;;;;5094795;28;20199;-49
2022/08/30 00:39:51;;;;;;;2.90;1.50;;;;;;;;;;5094595;28;20202;-49
2022/08/30 00:42:18;;;;;;;3.53;1.67;;;;;;;;;;5094958;28;20601;-49
2022/08/30 00:44:44;;;;;;;1.33;1.23;;;;;;;;;;5094832;28;20203;-49
2022/08/30 00:47:10;;;;;;;1.83;1.30;;;;;;;;;;5094721;28;20198;-48
2022/08/30 00:49:37;;;;;;;1.60;1.50;;;;;;;;;;5094581;28;20198;-50
2022/08/30 00:52:04;;;;;;;1.73;1.33;;;;;;;;;;5094505;28;20681;-49
2022/08/30 00:54:30;;;;;;;1.43;1.23;;;;;;;;;;5094235;28;20625;-49
2022/08/30 00:56:58;;;;;;;1.70;1.30;;;;;;;;;;5094503;28;20206;-49
2022/08/30 00:59:25;;;;;;;1.70;1.43;;;;;;;;;;5094357;28;20207;-49
2022/08/30 01:01:52;;;;;;;2.10;1.40;;;;;;;;;;5094472;28;20205;-50
2022/08/30 01:04:20;;;;;;;2.17;1.43;;;;;;;;;;5094069;28;20680;-49
2022/08/30 01:06:46;;;;;;;1.57;1.20;;;;;;;;;;5094149;28;20238;-50
2022/08/30 01:09:13;;;;;;;3.67;1.40;;;;;;;;;;5094204;28;20676;-49
2022/08/30 01:11:40;;;;;;;1.73;1.50;;;;;;;;;;5094212;28;20253;-50
2022/08/30 01:14:08;;;;;;;1.77;1.40;;;;;;;;;;5094108;28;20302;-49
2022/08/30 01:16:35;;;;;;;1.73;1.43;;;;;;;;;;5093789;28;20195;-49
2022/08/30 01:19:01;;;;;;;1.60;1.50;;;;;;;;;;5093997;28;20195;-49
2022/08/30 01:21:29;;;;;;;1.63;1.40;;;;;;;;;;5094095;28;20199;-49
2022/08/30 01:23:58;;;;;;;2.10;1.60;;;;;;;;;;5094045;28;20214;-49
2022/08/30 01:26:25;;;;;;;1.53;1.37;;;;;;;;;;5093735;28;20306;-49
2022/08/30 01:28:53;;;;;;;1.63;1.40;;;;;;;;;;5094005;28;20206;-49
2022/08/30 01:31:19;;;;;;;1.50;1.40;;;;;;;;;;5093645;28;20210;-49
2022/08/30 01:33:45;;;;;;;1.90;1.57;;;;;;;;;;5093638;28;20215;-49
2022/08/30 01:36:13;;;;;;;1.90;1.60;;;;;;;;;;5093635;28;20234;-52
2022/08/30 01:38:41;;;;;;;2.30;1.57;;;;;;;;;;5093570;28;20441;-49
2022/08/30 01:41:10;;;;;;;2.27;1.70;;;;;;;;;;5093573;28;20654;-48
2022/08/30 01:43:36;;;;;;;2.93;1.70;;;;;;;;;;5093548;28;20234;-50
2022/08/30 01:46:02;;;;;;;1.73;1.57;;;;;;;;;;5093436;28;20272;-50
2022/08/30 01:48:28;;;;;;;3.17;1.40;;;;;;;;;;5093607;28;20341;-49
2022/08/30 01:50:54;;;;;;;1.50;1.40;;;;;;;;;;5093383;28;20199;-49
2022/08/30 01:53:20;;;;;;;1.90;1.70;;;;;;;;;;5093152;28;20205;-49
2022/08/30 01:55:46;;;;;;;1.93;1.50;;;;;;;;;;5093443;28;20222;-48
2022/08/30 01:58:13;;;;;;;2.20;1.67;;;;;;;;;;5093372;28;20669;-49
2022/08/30 02:00:39;;;;;;;2.20;1.80;;;;;;;;;;5093275;28;20203;-49
2022/08/30 02:03:06;;;;;;;2.23;1.40;;;;;;;;;;5091869;28;20221;-50
2022/08/30 02:05:32;;;;;;;1.87;1.63;;;;;;;;;;5092596;28;20645;-49
2022/08/30 02:07:58;;;;;;;1.87;1.40;;;;;;;;;;5092869;28;20249;-50
2022/08/30 02:10:24;;;;;;;1.70;1.53;;;;;;;;;;5093162;28;20218;-50
2022/08/30 02:12:50;;;;;;;3.23;1.73;;;;;;;;;;5092467;28;20577;-49
2022/08/30 02:15:18;;;;;;;2.10;1.50;;;;;;;;;;5092918;28;20740;-49
2022/08/30 02:17:44;;;;;;;1.93;1.73;;;;;;;;;;5092805;28;20648;-49
2022/08/30 02:20:10;;;;;;;2.57;1.60;;;;;;;;;;5092647;28;20664;-50
2022/08/30 02:22:36;;;;;;;1.80;1.70;;;;;;;;;;5092716;28;20199;-48
2022/08/30 02:25:04;;;;;;;3.30;1.70;;;;;;;;;;5092812;28;20194;-49
2022/08/30 02:27:30;;;;;;;2.33;1.80;;;;;;;;;;5092755;28;20195;-48
2022/08/30 02:29:56;;;;;;;3.33;1.60;;;;;;;;;;5092670;28;20221;-48
2022/08/30 02:32:23;;;;;;;2.33;1.77;;;;;;;;;;5092555;28;20206;-49
2022/08/30 02:34:49;;;;;;;2.17;1.77;;;;;;;;;;5092458;28;20229;-49
2022/08/30 02:37:15;;;;;;;2.77;2.27;;;;;;;;;;5092523;28;20199;-49
2022/08/30 02:39:41;;;;;;;2.80;1.90;;;;;;;;;;5092623;28;20190;-50
2022/08/30 02:42:07;;;;;;;1.90;1.70;;;;;;;;;;5092300;28;20235;-49
2022/08/30 02:44:33;;;;;;;1.93;1.67;;;;;;;;;;5092632;28;20202;-49
2022/08/30 02:46:59;;;;;;;2.00;1.77;;;;;;;;;;5092215;28;20665;-49
2022/08/30 02:49:27;;;;;;;1.93;1.70;;;;;;;;;;5092234;28;20206;-49
2022/08/30 02:51:53;;;;;;;2.50;1.80;;;;;;;;;;5092242;28;20619;-48
2022/08/30 02:54:19;;;;;;;2.50;1.90;;;;;;;;;;5092326;28;20253;-48
2022/08/30 02:56:45;;;;;;;2.30;2.00;;;;;;;;;;5092192;28;20190;-48
2022/08/30 02:59:11;;;;;;;1.90;1.63;;;;;;;;;;5091935;28;20720;-49
2022/08/30 03:01:37;;;;;;;2.07;1.60;;;;;;;;;;5091451;28;20615;-50
2022/08/30 03:04:04;;;;;;;3.33;2.10;;;;;;;;;;5092112;28;20187;-49
2022/08/30 03:06:31;;;;;;;2.13;1.93;;;;;;;;;;5091713;28;20652;-49
2022/08/30 03:08:57;;;;;;;3.77;2.03;;;;;;;;;;5092067;28;20202;-49
2022/08/30 03:11:24;;;;;;;3.23;1.90;;;;;;;;;;5091587;28;20568;-50
2022/08/30 03:13:50;;;;;;;2.20;2.00;;;;;;;;;;5091735;28;20243;-49
2022/08/30 03:16:16;;;;;;;4.80;2.20;;;;;;;;;;5091939;28;20198;-49
2022/08/30 03:18:42;;;;;;;5.67;2.57;;;;;;;;;;5091811;28;20285;-50
2022/08/30 03:21:10;;;;;;;2.40;2.20;;;;;;;;;;5091795;28;20293;-48
2022/08/30 03:23:37;;;;;;;3.20;1.80;;;;;;;;;;5091088;28;20191;-49
2022/08/30 03:26:03;;;;;;;2.70;1.90;;;;;;;;;;5091938;28;20259;-49
2022/08/30 03:28:29;;;;;;;2.97;1.87;;;;;;;;;;5091622;28;20677;-49
2022/08/30 03:30:55;;;;;;;2.13;1.77;;;;;;;;;;5091466;28;20244;-48
2022/08/30 03:33:21;;;;;;;2.90;2.20;;;;;;;;;;5091588;28;20202;-48
2022/08/30 03:35:48;;;;;;;2.33;2.00;;;;;;;;;;5091312;28;20199;-49
2022/08/30 03:38:14;;;;;;;2.20;2.00;;;;;;;;;;5091254;28;20222;-49
2022/08/30 03:40:42;;;;;;;3.23;2.23;;;;;;;;;;5091647;28;20198;-49
2022/08/30 03:43:08;;;;;;;2.67;2.00;;;;;;;;;;5091599;28;20210;-49
2022/08/30 03:45:34;;;;;;;2.67;2.20;;;;;;;;;;5091692;28;20187;-49
2022/08/30 03:48:01;;;;;;;1.80;1.70;;;;;;;;;;5091560;28;20285;-49
2022/08/30 03:50:27;;;;;;;2.47;2.17;;;;;;;;;;5091334;28;20213;-48
2022/08/30 03:52:53;;;;;;;5.53;2.47;;;;;;;;;;5091585;28;20195;-48
2022/08/30 03:55:20;;;;;;;2.83;2.03;;;;;;;;;;5091321;28;20223;-49
2022/08/30 03:57:47;;;;;;;2.47;2.10;;;;;;;;;;5091406;28;20230;-50
2022/08/30 04:00:14;;;;;;;2.73;1.90;;;;;;;;;;5091410;28;20199;-49
2022/08/30 04:02:40;;;;;;;3.33;2.23;;;;;;;;;;5091409;28;20195;-48
2022/08/30 04:05:07;;;;;;;2.23;2.03;;;;;;;;;;5091277;28;20661;-49
2022/08/30 04:07:33;;;;;;;2.63;2.20;;;;;;;;;;5090872;28;20713;-49
2022/08/30 04:09:59;;;;;;;2.43;2.13;;;;;;;;;;5091376;28;20241;-48
2022/08/30 04:12:25;;;;;;;3.23;1.97;;;;;;;;;;5091128;28;20281;-48
2022/08/30 04:14:53;;;;;;;3.20;2.37;;;;;;;;;;5091269;28;20237;-49
2022/08/30 04:17:19;;;;;;;2.77;2.50;;;;;;;;;;5090964;28;20727;-48
2022/08/30 04:19:45;;;;;;;4.33;2.73;;;;;;;;;;5091163;28;20195;-49
2022/08/30 04:22:11;;;;;;;3.20;2.50;;;;;;;;;;5091194;28;20194;-48
2022/08/30 04:24:37;;;;;;;3.10;2.10;;;;;;;;;;5091211;28;20561;-49
2022/08/30 04:27:03;;;;;;;3.70;2.47;;;;;;;;;;5091016;28;20278;-49
2022/08/30 04:29:30;;;;;;;3.50;2.60;;;;;;;;;;5091110;28;20291;-49
2022/08/30 04:31:57;;;;;;;2.63;2.30;;;;;;;;;;5090913;28;20203;-48
2022/08/30 04:34:23;;;;;;;2.47;2.27;;;;;;;;;;5090891;28;20253;-49
2022/08/30 04:36:49;;;;;;;2.90;2.40;;;;;;;;;;5094640;28;20199;-48
2022/08/30 04:39:15;;;;;;;3.37;2.37;;;;;;;;;;5092277;28;20202;-48
2022/08/30 04:41:41;;;;;;;2.30;2.10;;;;;;;;;;5094411;28;20202;-49
2022/08/30 04:44:07;;;;;;;3.70;2.50;;;;;;;;;;5093535;28;20198;-49
2022/08/30 04:46:34;;;;;;;2.60;2.30;;;;;;;;;;5094633;28;20203;-49
2022/08/30 04:49:02;;;;;;;2.60;2.40;;;;;;;;;;5094649;28;20202;-49
2022/08/30 04:51:28;;;;;;;2.50;2.30;;;;;;;;;;5094471;28;20210;-49
2022/08/30 04:53:54;;;;;;;3.17;2.23;;;;;;;;;;5094350;28;20276;-49
2022/08/30 04:56:21;;;;;;;2.17;2.00;;;;;;;;;;5094374;28;20728;-49
2022/08/30 04:58:48;;;;;;;2.83;2.60;;;;;;;;;;5094508;28;20278;-48
2022/08/30 05:01:14;;;;;;;4.07;2.40;;;;;;;;;;5094117;28;20279;-49
2022/08/30 05:03:40;;;;;;;3.33;2.80;;;;;;;;;;5094416;28;20231;-49
2022/08/30 05:06:07;;;;;;;2.70;2.50;;;;;;;;;;5094046;28;20232;-49
2022/08/30 05:08:33;;;;;;;3.20;2.50;;;;;;;;;;5094042;28;20309;-48
2022/08/30 05:11:03;;;;;;;2.73;2.53;;;;;;;;;;5093739;28;20294;-48
2022/08/30 05:13:29;;;;;;;3.20;2.90;;;;;;;;;;5094054;28;20234;-50
2022/08/30 05:15:55;;;;;;;3.40;2.47;;;;;;;;;;5093757;28;20202;-49
2022/08/30 05:18:21;;;;;;;3.30;2.77;;;;;;;;;;5093924;28;20191;-49
2022/08/30 05:20:47;;;;;;;2.97;2.63;;;;;;;;;;5093647;28;20727;-49
2022/08/30 05:23:14;;;;;;;3.90;2.90;;;;;;;;;;5093202;28;20278;-49
2022/08/30 05:25:41;;;;;;;5.73;2.70;;;;;;;;;;5093769;28;20191;-48
2022/08/30 05:28:07;;;;;;;3.43;3.13;;;;;;;;;;5093658;28;20205;-49
2022/08/30 05:30:34;;;;;;;3.20;3.00;;;;;;;;;;5093733;28;20598;-50
2022/08/30 05:33:00;;;;;;;3.20;2.90;;;;;;;;;;5093645;28;20219;-49
2022/08/30 05:35:26;;;;;;;3.80;2.63;;;;;;;;;;5093417;28;20223;-49
2022/08/30 05:37:52;;;;;;;3.40;3.03;;;;;;;;;;5093736;28;20202;-50
2022/08/30 05:40:20;;;;;;;3.50;3.20;;;;;;;;;;5093429;28;20206;-49
2022/08/30 05:42:46;;;;;;;2.87;2.67;;;;;;;;;;5093279;28;20199;-50
2022/08/30 05:45:12;;;;;;;4.03;3.63;;;;;;;;;;5093697;28;20211;-48
2022/08/30 05:47:39;;;;;;;4.17;3.60;;;;;;;;;;5092470;28;20293;-50
2022/08/30 05:50:06;;;;;;;3.30;2.90;;;;;;;;;;5093394;28;20224;-49
2022/08/30 05:52:34;;;;;;;3.20;2.90;;;;;;;;;;5093419;28;20203;-49
2022/08/30 05:55:02;;;;;;;3.97;3.03;;;;;;;;;;5093411;28;20222;-50
2022/08/30 05:57:30;;;;;;;4.13;3.30;;;;;;;;;;5093411;28;20199;-48
2022/08/30 05:59:56;;;;;;;5.20;2.70;;;;;;;;;;5093305;28;20199;-49
2022/08/30 06:02:22;;;;;;;3.30;3.10;;;;;;;;;;5093176;28;20246;-48
2022/08/30 06:04:48;;;;;;;6.20;3.37;;;;;;;;;;5093162;28;20252;-48
2022/08/30 06:07:14;;;;;;;5.73;3.63;;;;;;;;;;5092789;28;20266;-49
2022/08/30 06:09:40;;;;;;;5.27;3.63;;;;;;;;;;5093221;28;20194;-48
2022/08/30 06:12:07;;;;;;;4.20;3.90;;;;;;;;;;5093039;28;20237;-50
2022/08/30 06:14:34;;;;;;;4.37;3.37;;;;;;;;;;5093021;28;20265;-49
2022/08/30 06:17:00;;;;;;;4.20;3.80;;;;;;;;;;5090283;28;20218;-49
2022/08/30 06:19:26;;;;;;;3.90;3.50;;;;;;;;;;5091382;28;20222;-50
2022/08/30 06:21:52;;;;;;;5.77;4.13;;;;;;;;;;5092590;28;20199;-49
2022/08/30 06:24:18;;;;;;;5.33;3.43;;;;;;;;;;5092724;28;20210;-49
2022/08/30 06:26:45;;;;;;;9.90;4.13;;;;;;;;;;5092913;28;20214;-48
2022/08/30 06:29:14;;;;;;;4.17;3.77;;;;;;;;;;5092522;28;20545;-49
2022/08/30 06:31:41;;;;;;;3.30;3.00;;;;;;;;;;5092756;28;20225;-50
2022/08/30 06:34:08;;;;;;;7.00;4.77;;;;;;;;;;5092722;28;20223;-48
2022/08/30 06:36:35;;;;;;;3.67;3.37;;;;;;;;;;5092431;28;20202;-50
2022/08/30 06:39:01;;;;;;;3.33;3.03;;;;;;;;;;5092606;28;20199;-50
2022/08/30 06:41:28;;;;;;;4.10;3.17;;;;;;;;;;5092416;28;20195;-49
2022/08/30 06:43:55;;;;;;;3.83;3.30;;;;;;;;;;5092319;28;20207;-49
2022/08/30 06:46:22;;;;;;;3.30;3.00;;;;;;;;;;5092184;28;20690;-49
2022/08/30 06:48:50;;;;;;;3.00;2.70;;;;;;;;;;5092356;28;20205;-49
2022/08/30 06:51:19;;;;;;;3.37;2.80;;;;;;;;;;5092243;28;20206;-49
2022/08/30 06:53:45;;;;;;;3.10;2.70;;;;;;;;;;5092175;28;20206;-48
2022/08/30 06:56:11;;;;;;;2.80;2.60;;;;;;;;;;5091341;28;20207;-49
2022/08/30 06:58:38;;;;;;;3.70;2.47;;;;;;;;;;5091098;28;20198;-49
2022/08/30 07:01:04;;;;;;;3.90;3.07;;;;;;;;;;5091857;28;20224;-51
2022/08/30 07:03:30;;;;;;;4.70;3.00;;;;;;;;;;5091785;28;20205;-48
2022/08/30 07:05:58;;;;;;;6.80;3.57;;;;;;;;;;5091972;28;20187;-50
2022/08/30 07:08:24;;;;;;;3.83;3.27;;;;;;;;;;5091661;28;20225;-50
2022/08/30 07:10:53;;;;;;;5.37;3.47;;;;;;;;;;5091440;28;20534;-49
2022/08/30 07:13:19;;;;;;;4.03;3.30;;;;;;;;;;5090988;28;20198;-49
2022/08/30 07:15:46;;;;;;;3.27;2.90;;;;;;;;;;5091643;28;20230;-49
2022/08/30 07:21:04;;;;;;;3.83;2.83;;;;;;;;;;5091549;28;20232;-49
2022/08/30 07:23:30;;;;;;;4.70;3.30;;;;;;;;;;5091620;28;20195;-49
2022/08/30 07:25:56;;;;;;;6.17;2.83;;;;;;;;;;5091365;28;20252;-48
2022/08/30 07:28:22;;;;;;;3.23;2.20;;;;;;;;;;5090230;28;20194;-49
2022/08/30 07:30:48;;;;;;;2.90;2.60;;;;;;;;;;5090825;28;20289;-49
2022/08/30 07:33:14;;;;;;;3.10;2.40;;;;;;;;;;5091382;28;20240;-50
2022/08/30 07:35:40;;;;;;;2.40;2.20;;;;;;;;;;5091572;28;20269;-50
2022/08/30 07:38:11;;;;;;;3.07;2.20;;;;;;;;;;5091406;28;20558;-49
2022/08/30 07:40:37;;;;;;;8.33;2.73;;;;;;;;;;5091742;28;20202;-49
2022/08/30 07:43:03;;;;;;;2.70;2.23;;;;;;;;;;5091324;28;20199;-48
2022/08/30 07:45:29;;;;;;;2.10;1.73;;;;;;;;;;5091300;28;20191;-49
2022/08/30 07:47:56;;;;;;;3.23;2.07;;;;;;;;;;5091396;28;20196;-50
2022/08/30 07:50:22;;;;;;;2.10;1.90;;;;;;;;;;5091404;28;20672;-48
2022/08/30 07:52:48;;;;;;;2.70;1.80;;;;;;;;;;5091672;28;20201;-49
2022/08/30 07:55:16;;;;;;;2.20;1.80;;;;;;;;;;5090982;28;20717;-48
2022/08/30 07:57:42;;;;;;;1.73;1.60;;;;;;;;;;5091556;28;20209;-49
2022/08/30 08:00:08;;;;;;;1.70;1.53;;;;;;;;;;5091248;28;20683;-50
2022/08/30 08:02:36;;;;;;;7.00;1.80;;;;;;;;;;5091346;28;20194;-49
2022/08/30 08:05:03;;;;;;;1.90;1.50;;;;;;;;;;5091207;28;20694;-50
2022/08/30 08:07:29;;;;;;;1.60;1.50;;;;;;;;;;5091081;28;20238;-49
2022/08/30 08:09:55;;;;;;;1.83;1.57;;;;;;;;;;5092221;28;20194;-49
2022/08/30 08:12:23;;;;;;;3.50;1.70;;;;;;;;;;5095270;28;20198;-48
2022/08/30 08:14:49;;;;;;;2.70;1.40;;;;;;;;;;5095044;28;20234;-49
2022/08/30 08:17:15;;;;;;;2.20;1.37;;;;;;;;;;5095072;28;20729;-50
2022/08/30 08:19:41;;;;;;;1.97;1.47;;;;;;;;;;5095064;28;20203;-49
2022/08/30 08:22:07;;;;;;;2.50;1.53;;;;;;;;;;5094897;28;20205;-49
2022/08/30 08:24:33;;;;;;;2.13;1.30;;;;;;;;;;5095118;28;20197;-51
2022/08/30 08:26:59;;;;;;;1.33;1.20;;;;;;;;;;5094965;28;20197;-49
2022/08/30 08:29:26;;;;;;;1.60;1.50;;;;;;;;;;5095070;28;20206;-48
2022/08/30 08:31:52;;;;;;;2.10;1.70;;;;;;;;;;5094876;28;20195;-49
2022/08/30 08:34:22;;;;;;;1.93;1.50;;;;;;;;;;5095022;28;20226;-49
2022/08/30 08:36:48;;;;;;;2.23;1.30;;;;;;;;;;5094744;28;20659;-48
2022/08/30 08:39:14;;;;;;;1.70;1.60;;;;;;;;;;5094593;28;20200;-49
2022/08/30 08:41:46;;;;;;;1.90;1.70;;;;;;;;;;5094881;28;20209;-49
2022/08/30 08:44:14;;;;;;;3.43;2.20;;;;;;;;;;5094752;28;20238;-48
2022/08/30 08:46:45;;;;;;;2.57;2.13;;;;;;;;;;5094621;28;20197;-47
2022/08/30 08:49:11;;;;;;;1.77;1.63;;;;;;;;;;5094447;28;20285;-48
2022/08/30 08:54:27;;;;;;;4.20;1.80;;;;;;;;;;5093704;28;20634;-47
2022/08/30 08:56:53;;;;;;;3.37;1.60;;;;;;;;;;5094036;28;20210;-48
2022/08/30 08:59:19;;;;;;;2.87;1.50;;;;;;;;;;5094327;28;20204;-47
2022/08/30 09:01:49;;;;;;;1.60;1.43;;;;;;;;;;5093997;28;20722;-47
2022/08/30 09:04:19;;;;;;;1.57;1.23;;;;;;;;;;5094127;28;20219;-48
2022/08/30 09:06:49;;;;;;;2.67;1.47;;;;;;;;;;5093541;28;20242;-47
2022/08/30 09:09:18;;;;;;;1.67;1.40;;;;;;;;;;5093731;28;20202;-49
2022/08/30 09:11:46;;;;;;;2.00;1.80;;;;;;;;;;5093773;28;20191;-47
2022/08/30 09:14:14;;;;;;;1.77;1.63;;;;;;;;;;5093786;28;20222;-48
2022/08/30 09:16:49;;;;;;;1.60;1.20;;;;;;;;;;5094319;28;20199;-48
2022/08/30 09:19:33;;;;;;;1.40;1.20;;;;;;;;;;5093533;28;20218;-48
2022/08/30 09:21:59;;;;;;;1.70;1.60;;;;;;;;;;5092494;28;20289;-48
2022/08/30 09:24:25;;;;;;;2.10;1.40;;;;;;;;;;5093670;28;20210;-49
2022/08/30 09:26:51;;;;;;;2.07;1.40;;;;;;;;;;5093597;28;20203;-49
2022/08/30 09:29:18;;;;;;;1.50;1.37;;;;;;;;;;5093243;28;20192;-48
2022/08/30 09:31:46;;;;;;;1.23;1.13;;;;;;;;;;5092949;28;20192;-48
2022/08/30 09:34:18;;;;;;;1.97;1.50;;;;;;;;;;5092685;28;20246;-48
2022/08/30 09:36:44;;;;;;;1.60;1.30;;;;;;;;;;5093787;28;20275;-48
2022/08/30 09:39:14;;;;;;;3.03;1.60;;;;;;;;;;5093530;28;20313;-49
2022/08/30 09:41:42;;;;;;;3.87;1.60;;;;;;;;;;5093549;28;20195;-48
2022/08/30 09:44:09;;;;;;;1.90;1.57;;;;;;;;;;5093754;28;20282;-48
2022/08/30 09:46:42;;;;;;;1.83;1.50;;;;;;;;;;5093452;28;20196;-53
2022/08/30 09:49:20;;;;;;;1.80;1.50;;;;;;;;;;5093620;28;20225;-50
2022/08/30 09:51:52;;;;;;;1.57;1.40;;;;;;;;;;5091472;28;20279;-49
2022/08/30 09:54:21;;;;;;;2.40;1.47;;;;;;;;;;5092967;28;20216;-49
2022/08/30 09:56:51;;;;;;;2.20;1.33;;;;;;;;;;5093547;28;20338;-47
2022/08/30 09:59:25;;;;;;;1.77;0.80;;;;;;;;;;5093213;28;20207;-49
2022/08/30 10:01:53;;;;;;;1.27;1.00;;;;;;;;;;5092862;28;20611;-49
2022/08/30 10:04:21;;;;;;;2.00;1.13;;;;;;;;;;5091054;28;20204;-49
2022/08/30 10:06:51;;;;;;;2.43;1.50;;;;;;;;;;5092206;28;20244;-49
2022/08/30 10:09:21;;;;;;;1.30;1.20;;;;;;;;;;5092918;28;20543;-49
2022/08/30 10:11:52;;;;;;;1.00;1.00;;;;;;;;;;5093314;28;20280;-49
2022/08/30 10:14:41;;;;;;;1.43;1.33;;;;;;;;;;5093236;28;20220;-47
2022/08/30 10:17:10;;;;;;;1.17;0.90;;;;;;;;;;5090687;28;20291;-49
2022/08/30 10:19:43;;;;;;;2.20;0.97;;;;;;;;;;5093236;28;20250;-48
2022/08/30 10:22:14;;;;;;;1.63;1.30;;;;;;;;;;5086712;28;20224;-46
2022/08/30 10:24:42;;;;;;;2.83;1.10;;;;;;;;;;5092312;28;20193;-48
2022/08/30 10:27:11;;;;;;;1.53;1.17;;;;;;;;;;5092679;28;20212;-49
2022/08/30 10:29:40;;;;;;;2.90;1.27;;;;;;;;;;5091620;28;20202;-48
2022/08/30 10:32:12;;;;;;;1.10;1.10;;;;;;;;;;5091284;28;20206;-48
2022/08/30 10:34:39;;;;;;;2.37;1.10;;;;;;;;;;5091100;28;20637;-48
2022/08/30 10:37:07;;;;;;;1.80;1.27;;;;;;;;;;5092257;28;20214;-48
2022/08/30 10:39:37;;;;;;;1.33;1.00;;;;;;;;;;5091365;28;20281;-48
2022/08/30 10:42:06;;;;;;;1.13;1.03;;;;;;;;;;5091422;28;20208;-47
2022/08/30 10:44:36;;;;;;;1.60;1.17;;;;;;;;;;5091878;28;20289;-48
2022/08/30 10:47:05;;;;;;;1.63;1.30;;;;;;;;;;5091907;28;20291;-48
2022/08/30 10:49:35;;;;;;;1.00;1.00;;;;;;;;;;5091793;28;20222;-48
2022/08/30 10:52:06;;;;;;;1.60;1.13;;;;;;;;;;5091983;28;20198;-46
2022/08/30 10:54:36;;;;;;;1.03;1.00;;;;;;;;;;5091340;28;20711;-48
2022/08/30 10:57:03;;;;;;;2.33;1.20;;;;;;;;;;5090062;28;20305;-48
2022/08/30 10:59:30;;;;;;;1.63;1.03;;;;;;;;;;5091628;28;20306;-48
2022/08/30 11:02:04;;;;;;;1.70;1.00;;;;;;;;;;5091464;28;20219;-48
2022/08/30 11:04:37;;;;;;;1.00;1.00;;;;;;;;;;5090983;28;20624;-48
2022/08/30 11:07:10;;;;;;;2.37;1.33;;;;;;;;;;5091222;28;20289;-46
2022/08/30 11:10:01;;;;;;;1.20;1.10;;;;;;;;;;5091142;28;20300;-48
2022/08/30 11:12:33;;;;;;;1.20;1.10;;;;;;;;;;5090607;28;20214;-48
2022/08/30 11:14:59;;;;;;;1.77;1.00;;;;;;;;;;5090743;28;20626;-47
2022/08/30 11:17:27;;;;;;;1.10;1.10;;;;;;;;;;5091089;28;20211;-49
2022/08/30 11:19:54;;;;;;;0.97;0.80;;;;;;;;;;5089595;28;20292;-50
2022/08/30 11:22:23;;;;;;;2.60;1.00;;;;;;;;;;5089762;28;20204;-50
2022/08/30 11:25:04;;;;;;;1.40;1.10;;;;;;;;;;5091678;28;20193;-49
2022/08/30 11:27:42;;;;;;;4.83;1.03;;;;;;;;;;5091104;28;20208;-49
2022/08/30 11:30:23;;;;;;;1.20;1.10;;;;;;;;;;5091453;28;20663;-51
2022/08/30 11:32:59;;;;;;;1.30;1.20;;;;;;;;;;5091142;28;20624;-49
2022/08/30 11:35:36;;;;;;;2.10;1.07;;;;;;;;;;5090674;28;20243;-50
2022/08/30 11:38:11;;;;;;;1.30;1.20;;;;;;;;;;5091394;28;20309;-50
2022/08/30 11:40:46;;;;;;;1.60;1.23;;;;;;;;;;5091521;28;20220;-51
2022/08/30 11:43:27;;;;;;;2.50;1.43;;;;;;;;;;5090991;28;20217;-50
2022/08/30 11:46:12;;;;;;;1.70;1.23;;;;;;;;;;5090433;28;20195;-52
2022/08/30 11:48:41;;;;;;;1.53;1.20;;;;;;;;;;5090075;28;20213;-49
2022/08/30 11:51:10;;;;;;;2.57;1.37;;;;;;;;;;5091813;28;20240;-50
2022/08/30 11:53:41;;;;;;;1.57;1.00;;;;;;;;;;5091690;28;20198;-49
2022/08/30 11:56:12;;;;;;;3.17;1.30;;;;;;;;;;5091684;28;20770;-50
2022/08/30 11:58:46;;;;;;;1.30;1.20;;;;;;;;;;5091660;28;20213;-49
2022/08/30 12:01:31;;;;;;;1.17;1.07;;;;;;;;;;5091616;28;20225;-50
2022/08/30 12:03:58;;;;;;;1.20;1.10;;;;;;;;;;5091847;28;20198;-50
2022/08/30 12:06:39;;;;;;;1.70;1.40;;;;;;;;;;5091289;28;20238;-50
2022/08/30 12:09:05;;;;;;;4.83;1.27;;;;;;;;;;5089790;28;20204;-51
2022/08/30 12:11:46;;;;;;;1.60;1.50;;;;;;;;;;5091591;28;20217;-51
2022/08/30 12:14:27;;;;;;;1.27;1.17;;;;;;;;;;5091375;28;20197;-51
2022/08/30 12:18:26;;;;;;;1.67;1.27;;;;;;;;;;5091349;28;20197;-49
2022/08/30 12:19:56;;;;;;;1.83;1.40;;;;;;;;;;5091413;28;20661;-50
2022/08/30 12:22:22;;;;;;;5.20;1.33;;;;;;;;;;5091521;28;20200;-50
2022/08/30 12:24:51;;;;;;;2.57;1.40;;;;;;;;;;5091589;28;20195;-50
2022/08/30 12:27:22;;;;;;;2.17;1.10;;;;;;;;;;5091498;28;20200;-50
2022/08/30 12:29:50;;;;;;;3.23;1.10;;;;;;;;;;5091662;28;20557;-49
2022/08/30 12:32:19;;;;;;;1.60;1.17;;;;;;;;;;5091464;28;20205;-50
2022/08/30 12:34:49;;;;;;;1.37;1.27;;;;;;;;;;5091456;28;20636;-49
2022/08/30 12:37:19;;;;;;;2.03;1.00;;;;;;;;;;5091360;28;20203;-50
2022/08/30 12:39:46;;;;;;;1.60;1.10;;;;;;;;;;5091455;28;20225;-49
2022/08/30 12:42:16;;;;;;;1.20;1.10;;;;;;;;;;5091398;28;20228;-49
2022/08/30 12:44:42;;;;;;;1.50;1.40;;;;;;;;;;5091278;28;20194;-49
2022/08/30 12:47:11;;;;;;;2.13;1.60;;;;;;;;;;5091195;28;20247;-49
2022/08/30 12:49:39;;;;;;;1.00;1.00;;;;;;;;;;5091217;28;20745;-50
2022/08/30 12:52:15;;;;;;;1.30;1.20;;;;;;;;;;5091370;28;20227;-50
2022/08/30 12:54:41;;;;;;;1.20;1.10;;;;;;;;;;5091119;28;20673;-50
2022/08/30 12:57:07;;;;;;;1.23;1.13;;;;;;;;;;5093892;28;20273;-50
2022/08/30 12:59:50;;;;;;;1.40;1.30;;;;;;;;;;5094689;28;20666;-49
2022/08/30 13:02:19;;;;;;;1.20;1.10;;;;;;;;;;5094749;28;20196;-49
2022/08/30 13:04:46;;;;;;;1.20;1.10;;;;;;;;;;5094711;28;20918;-48
2022/08/30 13:07:23;;;;;;;2.80;1.33;;;;;;;;;;5094365;28;20304;-49
2022/08/30 13:09:49;;;;;;;1.30;1.20;;;;;;;;;;5094793;28;20625;-49
2022/08/30 13:12:20;;;;;;;1.40;1.30;;;;;;;;;;5094609;28;20658;-49
2022/08/30 13:14:46;;;;;;;0.90;0.90;;;;;;;;;;5094365;28;20223;-49
2022/08/30 13:17:20;;;;;;;1.27;1.17;;;;;;;;;;5094440;28;20582;-49
2022/08/30 13:19:57;;;;;;;1.50;1.07;;;;;;;;;;5094478;28;20199;-50
2022/08/30 13:22:24;;;;;;;2.17;1.20;;;;;;;;;;5094496;28;20212;-50
2022/08/30 13:24:51;;;;;;;1.37;1.27;;;;;;;;;;5094427;28;20245;-49
2022/08/30 13:27:17;;;;;;;1.17;1.07;;;;;;;;;;5094226;28;20714;-50
2022/08/30 13:29:43;;;;;;;1.43;1.20;;;;;;;;;;5094199;28;20200;-49
2022/08/30 13:32:09;;;;;;;1.23;1.20;;;;;;;;;;5094028;28;20769;-50
2022/08/30 13:34:35;;;;;;;1.80;1.60;;;;;;;;;;5093811;28;20273;-50
2022/08/30 13:37:03;;;;;;;1.33;1.23;;;;;;;;;;5093902;28;20198;-49
2022/08/30 13:39:29;;;;;;;2.17;1.40;;;;;;;;;;5093986;28;20601;-49
2022/08/30 13:41:55;;;;;;;4.57;1.63;;;;;;;;;;5094125;28;20628;-50
2022/08/30 13:44:21;;;;;;;2.60;1.30;;;;;;;;;;5094052;28;20199;-50
2022/08/30 13:46:49;;;;;;;3.43;1.60;;;;;;;;;;5093085;28;20538;-50
2022/08/30 13:49:17;;;;;;;2.70;1.60;;;;;;;;;;5089990;28;20203;-49
2022/08/30 13:51:43;;;;;;;1.73;1.20;;;;;;;;;;5093051;28;20206;-50
2022/08/30 13:54:10;;;;;;;1.80;1.17;;;;;;;;;;5092009;28;20213;-50
2022/08/30 13:56:36;;;;;;;1.30;1.20;;;;;;;;;;5092840;28;20220;-49
2022/08/30 13:59:02;;;;;;;1.27;1.03;;;;;;;;;;5091122;28;20573;-48
2022/08/30 14:01:29;;;;;;;1.37;1.27;;;;;;;;;;5093111;28;20197;-49
2022/08/30 14:03:55;;;;;;;2.03;1.20;;;;;;;;;;5093263;28;20195;-50
2022/08/30 14:06:21;;;;;;;1.33;1.20;;;;;;;;;;5092271;28;20713;-49
2022/08/30 14:08:47;;;;;;;1.43;0.93;;;;;;;;;;5092699;28;20566;-50
2022/08/30 14:11:15;;;;;;;2.43;1.20;;;;;;;;;;5093017;28;20734;-49
2022/08/30 14:13:44;;;;;;;2.00;1.07;;;;;;;;;;5092764;28;20563;-49
2022/08/30 14:16:10;;;;;;;1.57;1.20;;;;;;;;;;5092658;28;20225;-53
2022/08/30 14:18:36;;;;;;;1.10;0.93;;;;;;;;;;5092765;28;20190;-50
2022/08/30 14:21:02;;;;;;;1.93;1.10;;;;;;;;;;5092718;28;20196;-50
2022/08/30 14:23:29;;;;;;;1.33;1.23;;;;;;;;;;5092054;28;20232;-49
2022/08/30 14:25:56;;;;;;;2.73;1.90;;;;;;;;;;5092992;28;20201;-50
2022/08/30 14:28:24;;;;;;;2.17;1.93;;;;;;;;;;5092100;28;20209;-50
2022/08/30 14:30:50;;;;;;;4.80;1.80;;;;;;;;;;5092096;28;20281;-49
2022/08/30 14:33:16;;;;;;;3.97;2.00;;;;;;;;;;5091794;28;20616;-51
2022/08/30 14:35:42;;;;;;;3.07;2.20;;;;;;;;;;5092597;28;20888;-49
2022/08/30 14:38:08;;;;;;;4.47;1.80;;;;;;;;;;5092784;28;20205;-50
2022/08/30 14:40:34;;;;;;;1.80;1.70;;;;;;;;;;5092291;28;20279;-49
2022/08/30 14:43:00;;;;;;;2.50;2.27;;;;;;;;;;5092340;28;20635;-48
2022/08/30 14:45:28;;;;;;;2.77;1.87;;;;;;;;;;5092021;28;20188;-51
2022/08/30 14:47:56;;;;;;;2.47;2.03;;;;;;;;;;5092267;28;20199;-50
2022/08/30 14:50:22;;;;;;;3.77;2.10;;;;;;;;;;5092167;28;20257;-50
2022/08/30 14:52:48;;;;;;;2.57;2.00;;;;;;;;;;5092406;28;20230;-50
2022/08/30 14:55:14;;;;;;;3.03;2.10;;;;;;;;;;5092316;28;20224;-49